Time;durP1;ratioP1;P1;durP2;ratioP2;P2;SDS_P1;SDS_P2;PMS_P1;PMS_P2;Temp;Humidity;BMP_temperature;BMP_pressure;BME280_temperature;BME280_humidity;BME280_pressure;Samples;Min_cycle;Max_cycle;Signal;HPM_P1;HPM_P2
2022/10/15 00:01:39;;;;;;;12.10;5.87;;;12.70;99.90;;;;;;5020626;28;20176;-82
2022/10/15 00:04:05;;;;;;;16.47;6.70;;;12.70;99.90;;;;;;5038464;28;20199;-82
2022/10/15 00:06:31;;;;;;;12.17;6.30;;;12.70;99.90;;;;;;5039061;28;20207;-82
2022/10/15 00:08:57;;;;;;;10.03;6.80;;;12.70;99.90;;;;;;5039398;28;20190;-82
2022/10/15 00:11:25;;;;;;;10.50;6.77;;;12.70;99.90;;;;;;5021367;28;20176;-82
2022/10/15 00:13:56;;;;;;;12.50;6.47;;;12.70;99.90;;;;;;5021070;28;20571;-82
2022/10/15 00:16:24;;;;;;;10.10;7.13;;;12.70;99.90;;;;;;5039722;28;20534;-82
2022/10/15 00:18:50;;;;;;;9.37;7.07;;;12.70;99.90;;;;;;5039122;28;20177;-83
2022/10/15 00:21:18;;;;;;;12.07;7.73;;;12.70;99.90;;;;;;5021886;28;20665;-83
2022/10/15 00:23:44;;;;;;;12.73;7.90;;;12.70;99.90;;;;;;5040377;28;20230;-82
2022/10/15 00:26:16;;;;;;;12.87;7.83;;;12.60;99.90;;;;;;5041053;28;20173;-82
2022/10/15 00:28:41;;;;;;;14.27;8.60;;;12.60;99.90;;;;;;5022711;28;20195;-83
2022/10/15 00:31:12;;;;;;;10.63;7.60;;;12.70;99.90;;;;;;5040063;28;20219;-82
2022/10/15 00:33:38;;;;;;;13.13;7.60;;;12.60;99.90;;;;;;5041054;28;20210;-82
2022/10/15 00:36:07;;;;;;;10.27;7.93;;;12.60;99.90;;;;;;5022764;28;20172;-81
2022/10/15 00:38:34;;;;;;;12.53;8.10;;;12.60;99.90;;;;;;5023386;28;20180;-82
2022/10/15 00:40:59;;;;;;;13.77;7.47;;;12.50;99.90;;;;;;5023367;28;20184;-82
2022/10/15 00:43:47;;;;;;;13.07;7.63;;;12.50;99.90;;;;;;5040678;28;20611;-82
2022/10/15 00:46:23;;;;;;;10.97;6.50;;;12.50;99.90;;;;;;5023164;28;20184;-82
2022/10/15 00:48:54;;;;;;;15.00;7.77;;;12.50;99.90;;;;;;5023801;28;20180;-82
2022/10/15 00:51:21;;;;;;;10.10;7.37;;;12.40;99.90;;;;;;5041327;28;20571;-82
2022/10/15 00:53:48;;;;;;;15.10;7.67;;;12.40;99.90;;;;;;5024560;28;20198;-82
2022/10/15 00:56:16;;;;;;;12.27;7.07;;;12.40;99.90;;;;;;5019477;28;20279;-81
2022/10/15 00:58:42;;;;;;;15.90;6.77;;;12.30;99.90;;;;;;5018668;28;20644;-83
2022/10/15 01:01:08;;;;;;;18.10;8.20;;;12.20;99.90;;;;;;5037281;28;20550;-81
2022/10/15 01:03:34;;;;;;;11.97;7.27;;;12.30;99.90;;;;;;5019666;28;20207;-82
2022/10/15 01:06:01;;;;;;;8.93;6.97;;;12.30;99.90;;;;;;5020353;28;20199;-81
2022/10/15 01:08:27;;;;;;;9.07;6.60;;;12.20;99.90;;;;;;5037241;28;20183;-81
2022/10/15 01:11:05;;;;;;;10.17;7.00;;;12.10;99.90;;;;;;5018460;28;20631;-82
2022/10/15 01:13:50;;;;;;;13.93;6.80;;;12.00;99.90;;;;;;5036672;28;20192;-82
2022/10/15 01:16:22;;;;;;;9.70;7.23;;;12.00;99.90;;;;;;5019151;28;20189;-81
2022/10/15 01:19:02;;;;;;;12.27;7.07;;;12.00;99.90;;;;;;5037441;28;20179;-82
2022/10/15 01:21:48;;;;;;;12.93;7.03;;;11.90;99.90;;;;;;5019052;28;20168;-82
2022/10/15 01:24:42;;;;;;;12.20;7.00;;;11.90;99.90;;;;;;5018478;28;20288;-83
2022/10/15 01:27:30;;;;;;;8.23;6.40;;;11.80;99.90;;;;;;5018979;28;20236;-82
2022/10/15 01:30:04;;;;;;;13.77;7.10;;;11.70;99.90;;;;;;5019505;28;20257;-82
2022/10/15 01:32:40;;;;;;;9.07;7.07;;;11.70;99.90;;;;;;5038237;28;20648;-82
2022/10/15 01:35:10;;;;;;;13.93;6.73;;;11.80;99.90;;;;;;5038420;28;20156;-81
2022/10/15 01:37:49;;;;;;;8.13;6.93;;;11.70;99.90;;;;;;5021064;28;20544;-81
2022/10/15 01:40:24;;;;;;;9.73;7.37;;;11.60;99.90;;;;;;5038875;28;20184;-81
2022/10/15 01:43:07;;;;;;;10.20;7.17;;;11.70;99.90;;;;;;5038747;28;20196;-82
2022/10/15 01:45:46;;;;;;;11.60;6.90;;;11.70;99.90;;;;;;5036627;28;20168;-82
2022/10/15 01:48:12;;;;;;;12.20;7.33;;;11.70;99.90;;;;;;5035000;28;20382;-83
2022/10/15 01:50:45;;;;;;;12.73;8.10;;;11.70;99.90;;;;;;5022965;28;20204;-82
2022/10/15 01:53:14;;;;;;;13.67;8.03;;;11.80;99.90;;;;;;5041767;28;20692;-82
2022/10/15 01:55:42;;;;;;;13.47;8.37;;;11.80;99.90;;;;;;5023696;28;20666;-83
2022/10/15 01:58:10;;;;;;;12.27;8.50;;;11.80;99.90;;;;;;5024178;28;20236;-82
2022/10/15 02:00:37;;;;;;;12.70;8.00;;;11.80;99.90;;;;;;5023879;28;20577;-82
2022/10/15 02:03:03;;;;;;;11.57;7.87;;;11.90;99.90;;;;;;5025078;28;20682;-83
2022/10/15 02:05:37;;;;;;;9.53;8.53;;;11.90;99.90;;;;;;5043757;28;20221;-82
2022/10/15 02:08:21;;;;;;;14.27;8.17;;;11.90;99.90;;;;;;5024433;28;20212;-81
2022/10/15 02:10:53;;;;;;;17.37;8.43;;;11.90;99.90;;;;;;5023812;28;20686;-81
2022/10/15 02:13:42;;;;;;;10.70;7.23;;;11.90;99.90;;;;;;5023112;28;20563;-81
2022/10/15 02:16:22;;;;;;;11.87;7.03;;;11.90;99.90;;;;;;5041749;28;20160;-82
2022/10/15 02:19:05;;;;;;;10.90;6.50;;;11.90;99.90;;;;;;5023505;28;20172;-82
2022/10/15 02:22:00;;;;;;;14.47;6.87;;;11.90;99.90;;;;;;5041219;28;20153;-82
2022/10/15 02:24:32;;;;;;;18.30;5.97;;;11.90;99.90;;;;;;5023471;28;20207;-81
2022/10/15 02:27:00;;;;;;;18.53;6.77;;;11.90;99.90;;;;;;5023877;28;20512;-82
2022/10/15 02:29:31;;;;;;;17.13;8.57;;;11.80;99.90;;;;;;5041247;28;20339;-82
2022/10/15 02:31:59;;;;;;;8.73;6.50;;;11.90;99.90;;;;;;5041995;28;20165;-82
2022/10/15 02:34:28;;;;;;;15.47;8.43;;;11.90;99.90;;;;;;5042754;28;20666;-82
2022/10/15 02:36:59;;;;;;;14.00;7.47;;;11.90;99.90;;;;;;5023941;28;20168;-82
2022/10/15 02:39:25;;;;;;;10.30;7.27;;;11.90;99.90;;;;;;5041763;28;20214;-82
2022/10/15 02:41:52;;;;;;;17.00;7.00;;;11.90;99.90;;;;;;5042106;28;20580;-82
2022/10/15 02:44:18;;;;;;;10.53;7.03;;;11.90;99.90;;;;;;5023803;28;20262;-82
2022/10/15 02:46:43;;;;;;;11.23;7.73;;;11.90;99.90;;;;;;5042336;28;20180;-82
2022/10/15 02:49:09;;;;;;;17.43;8.47;;;11.90;99.90;;;;;;5023920;28;20213;-82
2022/10/15 02:51:35;;;;;;;19.00;9.30;;;12.00;99.90;;;;;;5043077;28;20173;-82
2022/10/15 02:54:02;;;;;;;14.83;9.20;;;12.00;99.90;;;;;;5042316;28;20193;-82
2022/10/15 02:56:28;;;;;;;16.30;9.43;;;12.00;99.90;;;;;;5037670;28;20165;-82
2022/10/15 02:58:53;;;;;;;13.60;10.30;;;12.00;99.90;;;;;;5018521;28;20179;-83
2022/10/15 03:01:19;;;;;;;12.73;9.93;;;12.00;99.90;;;;;;5035963;28;20164;-82
2022/10/15 03:03:45;;;;;;;16.07;9.77;;;12.00;99.90;;;;;;5018669;28;20224;-83
2022/10/15 03:06:10;;;;;;;16.40;9.93;;;12.10;99.90;;;;;;5018840;28;20215;-83
2022/10/15 03:08:36;;;;;;;16.27;11.00;;;12.10;99.90;;;;;;5018480;28;20180;-82
2022/10/15 03:11:02;;;;;;;18.60;10.60;;;12.10;99.90;;;;;;5036662;28;20208;-82
2022/10/15 03:13:28;;;;;;;15.83;10.27;;;12.10;99.90;;;;;;5018353;28;20697;-82
2022/10/15 03:15:53;;;;;;;16.10;10.80;;;12.10;99.90;;;;;;5018940;28;20314;-82
2022/10/15 03:18:19;;;;;;;15.20;10.50;;;12.10;99.90;;;;;;5018670;28;20196;-82
2022/10/15 03:20:53;;;;;;;18.07;10.40;;;12.10;99.90;;;;;;5018734;28;20246;-82
2022/10/15 03:23:18;;;;;;;18.90;9.77;;;12.20;99.90;;;;;;5037125;28;20211;-83
2022/10/15 03:25:44;;;;;;;15.37;10.07;;;12.20;99.90;;;;;;5037923;28;20180;-82
2022/10/15 03:28:09;;;;;;;16.37;10.17;;;12.20;99.90;;;;;;5020752;28;20543;-82
2022/10/15 03:30:34;;;;;;;18.37;9.33;;;12.20;99.90;;;;;;5021223;28;20208;-82
2022/10/15 03:33:00;;;;;;;18.80;9.13;;;12.20;99.90;;;;;;5019215;28;20200;-83
2022/10/15 03:35:26;;;;;;;16.27;8.80;;;12.20;99.90;;;;;;5036858;28;20219;-82
2022/10/15 03:37:51;;;;;;;20.70;8.17;;;12.20;99.90;;;;;;5023743;28;20267;-82
2022/10/15 03:40:17;;;;;;;16.73;9.77;;;12.20;99.90;;;;;;5042081;28;20207;-82
2022/10/15 03:42:43;;;;;;;15.17;9.33;;;12.20;99.90;;;;;;5023679;28;20341;-82
2022/10/15 03:45:09;;;;;;;12.80;9.17;;;12.20;99.90;;;;;;5041441;28;20200;-82
2022/10/15 03:47:34;;;;;;;14.93;9.17;;;12.30;99.90;;;;;;5040789;28;20215;-82
2022/10/15 03:50:00;;;;;;;16.37;8.97;;;12.20;99.90;;;;;;5041539;28;20208;-82
2022/10/15 03:52:25;;;;;;;19.37;9.67;;;12.20;99.90;;;;;;5023406;28;20172;-82
2022/10/15 03:54:51;;;;;;;17.03;9.07;;;12.20;99.90;;;;;;5042458;28;20200;-82
2022/10/15 03:57:17;;;;;;;16.47;9.97;;;12.20;99.90;;;;;;5023040;28;20570;-82
2022/10/15 03:59:42;;;;;;;15.83;10.27;;;12.30;99.90;;;;;;5040357;28;20181;-82
2022/10/15 04:02:08;;;;;;;15.67;11.17;;;12.30;99.90;;;;;;5023240;28;20736;-82
2022/10/15 04:04:33;;;;;;;21.97;11.27;;;12.30;99.90;;;;;;5042902;28;20709;-82
2022/10/15 04:06:59;;;;;;;13.83;11.03;;;12.30;99.90;;;;;;5041885;28;20662;-82
2022/10/15 04:09:24;;;;;;;14.73;9.40;;;12.30;99.90;;;;;;5024185;28;20203;-82
2022/10/15 04:11:50;;;;;;;17.30;10.73;;;12.30;99.90;;;;;;5040710;28;20638;-82
2022/10/15 04:14:15;;;;;;;15.77;11.73;;;12.30;99.90;;;;;;5041585;28;20188;-82
2022/10/15 04:16:41;;;;;;;18.20;11.23;;;12.30;99.90;;;;;;5043032;28;20178;-82
2022/10/15 04:19:06;;;;;;;20.83;12.00;;;12.30;99.90;;;;;;5024444;28;20187;-82
2022/10/15 04:21:32;;;;;;;19.40;12.83;;;12.30;99.90;;;;;;5042747;28;20208;-82
2022/10/15 04:23:57;;;;;;;20.97;12.30;;;12.40;99.90;;;;;;5025769;28;20228;-81
2022/10/15 04:26:23;;;;;;;16.43;11.40;;;12.40;99.90;;;;;;5049024;28;20239;-81
2022/10/15 04:28:48;;;;;;;20.63;12.23;;;12.40;99.90;;;;;;5042366;28;20533;-81
2022/10/15 04:31:14;;;;;;;18.50;11.90;;;12.40;99.90;;;;;;5020716;28;20303;-81
2022/10/15 04:33:40;;;;;;;19.20;11.83;;;12.40;99.90;;;;;;5019780;28;20194;-81
2022/10/15 04:36:12;;;;;;;23.70;13.03;;;12.40;99.90;;;;;;5038410;28;20546;-81
2022/10/15 04:38:38;;;;;;;17.27;12.17;;;12.40;99.90;;;;;;5040500;28;20194;-81
2022/10/15 04:41:06;;;;;;;20.73;13.17;;;12.40;99.90;;;;;;5040346;28;20238;-82
2022/10/15 04:43:32;;;;;;;19.10;13.50;;;12.40;99.90;;;;;;5063849;22;20255;-77
2022/10/15 04:46:02;;;;;;;21.17;13.37;;;12.50;99.90;;;;;;5032365;28;20179;-77
2022/10/15 04:48:30;;;;;;;18.93;13.67;;;12.50;99.90;;;;;;5032050;28;20241;-77
2022/10/15 04:51:13;;;;;;;19.73;13.87;;;12.50;99.90;;;;;;5015228;28;20207;-77
2022/10/15 04:53:39;;;;;;;19.00;13.43;;;12.50;99.90;;;;;;5032908;28;20215;-77
2022/10/15 04:56:07;;;;;;;21.90;13.20;;;12.60;99.90;;;;;;5032933;28;20168;-77
2022/10/15 04:58:34;;;;;;;20.67;13.10;;;12.50;99.90;;;;;;5033153;28;20229;-77
2022/10/15 05:01:06;;;;;;;24.67;14.63;;;12.60;99.90;;;;;;5033218;28;20172;-77
2022/10/15 05:03:32;;;;;;;19.33;13.70;;;12.60;99.90;;;;;;5015027;28;20231;-77
2022/10/15 05:06:03;;;;;;;21.70;14.27;;;12.60;99.90;;;;;;5033138;28;20180;-77
2022/10/15 05:08:32;;;;;;;23.80;13.50;;;12.60;99.90;;;;;;5032979;28;20534;-77
2022/10/15 05:11:03;;;;;;;21.53;12.77;;;12.60;99.90;;;;;;5032700;28;20200;-77
2022/10/15 05:13:29;;;;;;;20.50;13.73;;;12.60;99.90;;;;;;5032697;28;20196;-77
2022/10/15 05:15:54;;;;;;;21.90;13.40;;;12.60;99.90;;;;;;5032846;28;20172;-77
2022/10/15 05:18:20;;;;;;;17.20;12.00;;;12.50;99.90;;;;;;5015812;28;20179;-77
2022/10/15 05:20:45;;;;;;;17.83;12.63;;;12.50;99.90;;;;;;5033842;28;20182;-76
2022/10/15 05:23:11;;;;;;;21.93;12.73;;;12.50;99.90;;;;;;5035203;28;20177;-77
2022/10/15 05:25:36;;;;;;;16.93;12.17;;;12.40;99.90;;;;;;5037338;28;20187;-77
2022/10/15 05:28:02;;;;;;;18.90;11.83;;;12.40;99.90;;;;;;5037342;28;20176;-77
2022/10/15 05:30:28;;;;;;;17.50;12.37;;;12.30;99.90;;;;;;5036515;28;20314;-77
2022/10/15 05:32:53;;;;;;;15.70;11.70;;;12.30;99.90;;;;;;5036394;28;20289;-77
2022/10/15 05:35:20;;;;;;;15.67;11.43;;;12.20;99.90;;;;;;5036443;28;20221;-77
2022/10/15 05:37:45;;;;;;;16.07;11.80;;;12.20;99.90;;;;;;5036513;28;20255;-77
2022/10/15 05:40:11;;;;;;;16.50;11.43;;;12.10;99.90;;;;;;5017480;28;20753;-76
2022/10/15 05:42:37;;;;;;;17.63;12.50;;;12.10;99.90;;;;;;5036053;28;20255;-76
2022/10/15 05:45:03;;;;;;;23.67;11.40;;;12.10;99.90;;;;;;5035922;28;20303;-76
2022/10/15 05:47:28;;;;;;;15.47;11.60;;;12.10;99.90;;;;;;5018223;28;20263;-77
2022/10/15 05:49:54;;;;;;;19.60;11.80;;;12.10;99.90;;;;;;5035871;28;20192;-76
2022/10/15 05:52:19;;;;;;;22.80;12.87;;;12.10;99.90;;;;;;5018181;28;20169;-77
2022/10/15 05:54:45;;;;;;;16.10;11.57;;;12.10;99.90;;;;;;5018110;28;20192;-77
2022/10/15 05:57:10;;;;;;;17.53;12.40;;;12.10;99.90;;;;;;5035825;28;20638;-77
2022/10/15 05:59:36;;;;;;;20.17;13.07;;;12.10;99.90;;;;;;5018087;28;20283;-77
2022/10/15 06:02:01;;;;;;;18.07;12.93;;;12.10;99.90;;;;;;5036229;28;20247;-77
2022/10/15 06:04:27;;;;;;;21.07;13.07;;;12.20;99.90;;;;;;5035621;28;20573;-77
2022/10/15 06:06:52;;;;;;;19.63;14.50;;;12.20;99.90;;;;;;5017943;28;20173;-76
2022/10/15 06:09:18;;;;;;;19.07;12.50;;;12.20;99.90;;;;;;5035533;28;20172;-76
2022/10/15 06:11:44;;;;;;;22.70;13.03;;;12.20;99.90;;;;;;5035480;28;20550;-76
2022/10/15 06:14:09;;;;;;;18.90;13.43;;;12.30;99.90;;;;;;5017746;28;20192;-77
2022/10/15 06:16:35;;;;;;;22.40;12.80;;;12.30;99.90;;;;;;5017708;28;20642;-77
2022/10/15 06:19:00;;;;;;;26.70;14.07;;;12.30;99.90;;;;;;5017690;28;20183;-76
2022/10/15 06:21:26;;;;;;;22.83;13.90;;;12.30;99.90;;;;;;5035340;28;20168;-77
2022/10/15 06:23:51;;;;;;;21.17;13.07;;;12.40;99.90;;;;;;5017520;28;20242;-77
2022/10/15 06:26:17;;;;;;;20.87;13.87;;;12.40;99.90;;;;;;5035537;28;20195;-77
2022/10/15 06:28:42;;;;;;;26.40;13.23;;;12.40;99.90;;;;;;5035219;28;20196;-77
2022/10/15 06:31:08;;;;;;;21.63;15.33;;;12.40;99.90;;;;;;5035380;28;20199;-77
2022/10/15 06:33:34;;;;;;;20.33;14.87;;;12.50;99.90;;;;;;5017333;28;20700;-77
2022/10/15 06:36:02;;;;;;;23.20;17.73;;;12.50;99.90;;;;;;5016724;28;20271;-76
2022/10/15 06:38:27;;;;;;;26.03;16.23;;;12.50;99.90;;;;;;5034909;28;20168;-77
2022/10/15 06:40:53;;;;;;;22.67;15.13;;;12.50;99.90;;;;;;5017266;28;20188;-77
2022/10/15 06:43:18;;;;;;;23.77;15.83;;;12.60;99.90;;;;;;5017014;28;20208;-77
2022/10/15 06:45:44;;;;;;;21.43;15.03;;;12.60;99.90;;;;;;5034993;28;20195;-76
2022/10/15 06:48:10;;;;;;;23.73;14.67;;;12.60;99.90;;;;;;5034859;28;20665;-77
2022/10/15 06:50:36;;;;;;;27.97;15.47;;;12.70;99.90;;;;;;5035247;28;20200;-77
2022/10/15 06:53:02;;;;;;;24.67;15.13;;;12.70;99.90;;;;;;5016940;28;20263;-77
2022/10/15 06:55:28;;;;;;;29.10;15.60;;;12.70;99.90;;;;;;5034696;28;20224;-77
2022/10/15 06:57:55;;;;;;;23.23;14.93;;;12.70;99.90;;;;;;5016923;28;20207;-76
2022/10/15 07:00:21;;;;;;;30.07;16.23;;;12.70;99.90;;;;;;5034569;28;20184;-77
2022/10/15 07:02:46;;;;;;;26.37;16.17;;;12.70;99.90;;;;;;5016777;28;20180;-77
2022/10/15 07:05:12;;;;;;;25.63;15.87;;;12.70;99.90;;;;;;5034431;28;20275;-77
2022/10/15 07:07:38;;;;;;;29.17;17.37;;;12.80;99.90;;;;;;5034737;28;20208;-77
2022/10/15 07:10:03;;;;;;;29.40;17.17;;;12.80;99.90;;;;;;5034363;28;20614;-76
2022/10/15 07:12:29;;;;;;;27.27;16.53;;;12.80;99.90;;;;;;5034330;28;20203;-77
2022/10/15 07:14:54;;;;;;;29.00;17.93;;;12.80;99.90;;;;;;5016528;28;20250;-77
2022/10/15 07:17:20;;;;;;;32.40;17.17;;;12.80;99.90;;;;;;5017308;28;20173;-77
2022/10/15 07:19:46;;;;;;;29.03;16.90;;;12.90;99.90;;;;;;5016452;28;20188;-77
2022/10/15 07:22:11;;;;;;;33.57;18.17;;;13.00;99.90;;;;;;5034118;28;20173;-77
2022/10/15 07:24:37;;;;;;;27.63;17.00;;;13.00;99.90;;;;;;5034066;28;20196;-77
2022/10/15 07:27:02;;;;;;;27.47;16.43;;;13.00;99.90;;;;;;5034235;28;20522;-77
2022/10/15 07:29:28;;;;;;;35.50;17.83;;;13.00;99.90;;;;;;5034257;28;20196;-77
2022/10/15 07:31:53;;;;;;;27.87;17.77;;;13.00;99.90;;;;;;5033985;28;20203;-77
2022/10/15 07:34:19;;;;;;;34.27;18.13;;;13.00;99.90;;;;;;5034169;28;20195;-77
2022/10/15 07:36:44;;;;;;;31.93;18.20;;;13.10;99.90;;;;;;5016180;28;20713;-77
2022/10/15 07:39:10;;;;;;;34.43;18.47;;;13.10;99.90;;;;;;5033891;28;20172;-76
2022/10/15 07:41:36;;;;;;;32.30;19.13;;;13.20;99.90;;;;;;5033853;28;20601;-76
2022/10/15 07:44:02;;;;;;;29.53;17.67;;;13.20;99.90;;;;;;5033716;28;20219;-77
2022/10/15 07:46:28;;;;;;;35.27;18.67;;;13.20;99.90;;;;;;5033027;28;20260;-76
2022/10/15 07:48:53;;;;;;;35.63;20.00;;;13.20;99.90;;;;;;5032985;28;20710;-77
2022/10/15 07:51:19;;;;;;;35.23;18.70;;;13.20;99.90;;;;;;5015344;28;20204;-77
2022/10/15 07:53:46;;;;;;;39.70;20.07;;;13.30;99.90;;;;;;5033477;28;20299;-76
2022/10/15 07:56:14;;;;;;;34.83;20.20;;;13.30;99.90;;;;;;5015795;28;20214;-77
2022/10/15 07:58:40;;;;;;;43.53;22.73;;;13.40;99.90;;;;;;5033415;28;20176;-77
2022/10/15 08:01:08;;;;;;;39.13;20.80;;;13.40;99.90;;;;;;5015619;28;20242;-77
2022/10/15 08:03:34;;;;;;;40.43;22.37;;;13.40;99.90;;;;;;5033481;28;20241;-77
2022/10/15 08:06:04;;;;;;;47.03;21.37;;;13.50;99.90;;;;;;5015631;28;20259;-77
2022/10/15 08:08:30;;;;;;;46.83;23.37;;;13.50;99.90;;;;;;5033562;28;20707;-76
2022/10/15 08:10:56;;;;;;;50.30;23.83;;;13.60;99.90;;;;;;5033507;28;20200;-77
2022/10/15 08:13:22;;;;;;;39.90;21.80;;;13.70;99.90;;;;;;5033141;28;20188;-76
2022/10/15 08:15:48;;;;;;;40.27;21.80;;;13.70;99.90;;;;;;5033226;28;20165;-77
2022/10/15 08:18:14;;;;;;;42.30;20.60;;;13.80;99.90;;;;;;5015498;28;20179;-77
2022/10/15 08:20:39;;;;;;;39.43;19.37;;;13.80;99.90;;;;;;5015474;28;20262;-77
2022/10/15 08:23:12;;;;;;;39.83;20.13;;;13.80;99.90;;;;;;5015363;28;20634;-77
2022/10/15 08:25:39;;;;;;;33.20;18.13;;;13.80;99.90;;;;;;5015376;28;20168;-76
2022/10/15 08:28:05;;;;;;;33.10;17.33;;;13.80;99.90;;;;;;5015338;28;20176;-77
2022/10/15 08:30:30;;;;;;;27.97;16.13;;;13.80;99.90;;;;;;5015235;28;20258;-77
2022/10/15 08:32:56;;;;;;;33.93;16.43;;;13.90;99.90;;;;;;5032879;28;20176;-76
2022/10/15 08:35:21;;;;;;;26.97;15.13;;;13.90;99.90;;;;;;5032918;28;20203;-76
2022/10/15 08:37:47;;;;;;;25.30;14.57;;;14.00;99.90;;;;;;5032871;28;20222;-76
2022/10/15 08:40:14;;;;;;;28.23;14.53;;;14.10;99.90;;;;;;5015182;28;20176;-77
2022/10/15 08:42:43;;;;;;;26.17;14.83;;;14.10;99.90;;;;;;5033133;28;20183;-77
2022/10/15 08:45:20;;;;;;;20.90;13.47;;;14.10;99.90;;;;;;5015021;28;20215;-76
2022/10/15 08:47:52;;;;;;;22.53;13.80;;;14.20;99.90;;;;;;5033110;28;20160;-76
2022/10/15 08:50:39;;;;;;;29.57;16.03;;;14.30;99.90;;;;;;5032734;28;20254;-76
2022/10/15 08:53:09;;;;;;;20.40;14.20;;;14.30;99.90;;;;;;5015096;28;20203;-76
2022/10/15 08:55:38;;;;;;;19.97;12.80;;;14.30;99.90;;;;;;5032757;28;20164;-77
2022/10/15 08:58:16;;;;;;;16.97;11.17;;;14.30;99.90;;;;;;5034566;28;20168;-76
2022/10/15 09:00:57;;;;;;;21.20;10.97;;;14.40;99.90;;;;;;5037108;28;20167;-76
2022/10/15 09:03:45;;;;;;;15.83;9.70;;;14.40;99.90;;;;;;5036680;28;20196;-77
2022/10/15 09:06:32;;;;;;;16.73;9.83;;;14.50;99.90;;;;;;5019229;28;20605;-76
2022/10/15 09:09:01;;;;;;;12.63;8.27;;;14.50;99.90;;;;;;5018877;28;20209;-77
2022/10/15 09:11:40;;;;;;;15.90;9.03;;;14.50;99.90;;;;;;5018784;28;20292;-76
2022/10/15 09:14:14;;;;;;;13.13;7.70;;;14.60;99.90;;;;;;5036539;28;20238;-76
2022/10/15 09:16:42;;;;;;;10.03;6.57;;;14.60;99.90;;;;;;5018793;28;20157;-76
2022/10/15 09:19:28;;;;;;;10.30;6.40;;;14.60;99.90;;;;;;5018775;28;20171;-77
2022/10/15 09:21:54;;;;;;;7.90;5.30;;;14.70;99.90;;;;;;5018713;28;20653;-76
2022/10/15 09:24:22;;;;;;;10.80;4.47;;;14.70;99.90;;;;;;5036576;28;20196;-75
2022/10/15 09:27:08;;;;;;;6.53;4.00;;;14.70;99.90;;;;;;5018526;28;20199;-76
2022/10/15 09:29:52;;;;;;;5.33;3.70;;;14.80;99.90;;;;;;5036221;28;20184;-76
2022/10/15 09:32:30;;;;;;;4.63;3.50;;;14.80;99.90;;;;;;5036238;28;20179;-76
2022/10/15 09:35:01;;;;;;;4.73;3.23;;;14.90;99.90;;;;;;5036000;28;20188;-76
2022/10/15 09:37:30;;;;;;;4.30;2.97;;;14.90;99.90;;;;;;5035015;28;20196;-75
2022/10/15 09:40:15;;;;;;;4.83;3.00;;;14.90;99.90;;;;;;5035606;28;20180;-76
2022/10/15 09:42:42;;;;;;;8.90;2.50;;;15.00;99.90;;;;;;5017183;28;20171;-75
2022/10/15 09:45:14;;;;;;;3.53;2.30;;;15.00;99.90;;;;;;5017003;28;20215;-76
2022/10/15 09:47:41;;;;;;;5.07;1.97;;;15.10;99.90;;;;;;5035994;28;20169;-76
2022/10/15 09:50:11;;;;;;;4.00;2.00;;;15.10;99.90;;;;;;5035855;28;20245;-76
2022/10/15 09:52:40;;;;;;;4.33;1.37;;;15.20;99.90;;;;;;5035867;28;20164;-76
2022/10/15 09:55:30;;;;;;;3.93;1.80;;;15.20;99.90;;;;;;5035741;28;20685;-76
2022/10/15 09:58:00;;;;;;;1.97;1.17;;;15.30;99.90;;;;;;5035777;28;20642;-76
2022/10/15 10:00:53;;;;;;;2.30;0.80;;;15.40;99.90;;;;;;5035740;28;20165;-76
2022/10/15 10:03:22;;;;;;;1.13;0.80;;;15.40;99.90;;;;;;5035681;28;20204;-77
2022/10/15 10:05:48;;;;;;;2.03;0.87;;;15.40;99.90;;;;;;5017858;28;20230;-76
2022/10/15 10:08:26;;;;;;;0.90;0.80;;;15.40;99.90;;;;;;5017847;28;20203;-76
2022/10/15 10:11:00;;;;;;;4.70;0.90;;;15.50;99.90;;;;;;5034503;28;20685;-76
2022/10/15 10:13:50;;;;;;;0.73;0.70;;;15.50;99.90;;;;;;5035566;28;20215;-76
2022/10/15 10:16:18;;;;;;;1.10;0.70;;;15.50;99.90;;;;;;5035556;28;20238;-76
2022/10/15 10:18:59;;;;;;;1.20;0.90;;;15.50;99.90;;;;;;5035345;28;20164;-76
2022/10/15 10:21:34;;;;;;;0.70;0.70;;;15.60;99.90;;;;;;5035420;28;20239;-76
2022/10/15 10:24:17;;;;;;;0.60;0.53;;;15.60;99.90;;;;;;5017554;28;20203;-76
2022/10/15 10:26:44;;;;;;;0.80;0.80;;;15.60;99.90;;;;;;5035558;28;20164;-77
2022/10/15 10:29:18;;;;;;;1.40;0.93;;;15.70;99.90;;;;;;5017424;28;20203;-77
2022/10/15 10:31:44;;;;;;;0.83;0.80;;;15.70;99.90;;;;;;5017676;28;20537;-76
2022/10/15 10:34:16;;;;;;;1.23;0.63;;;15.70;99.90;;;;;;5035007;28;20276;-76
2022/10/15 10:36:46;;;;;;;1.10;1.00;;;15.70;99.90;;;;;;5017316;28;20164;-76
2022/10/15 10:39:14;;;;;;;1.10;0.90;;;15.70;99.90;;;;;;5035614;28;20161;-76
2022/10/15 10:41:57;;;;;;;1.30;1.20;;;15.80;99.90;;;;;;5035777;28;20584;-76
2022/10/15 10:44:27;;;;;;;2.73;1.03;;;15.80;99.90;;;;;;5065088;22;20208;-96
2022/10/15 10:47:13;;;;;;;2.30;1.10;;;16.00;99.90;;;;;;5023871;28;20182;-96
2022/10/15 10:49:40;;;;;;;1.23;1.00;;;16.00;99.90;;;;;;5023387;28;20188;-96
2022/10/15 10:52:17;;;;;;;2.30;0.97;;;15.80;99.90;;;;;;5023933;28;20168;-96
2022/10/15 10:54:43;;;;;;;1.00;0.90;;;15.80;99.90;;;;;;5040826;28;20160;-96
2022/10/15 10:57:12;;;;;;;0.90;0.80;;;16.30;99.90;;;;;;5023928;28;20173;-96
2022/10/15 10:59:50;;;;;;;1.07;0.93;;;16.10;99.90;;;;;;5023852;28;20177;-96
2022/10/15 11:02:16;;;;;;;1.10;1.00;;;16.70;99.90;;;;;;5040588;28;20192;-96
2022/10/15 11:04:42;;;;;;;1.40;0.83;;;16.10;99.90;;;;;;5040566;28;20225;-96
2022/10/15 11:07:33;;;;;;;1.90;1.20;;;16.40;99.90;;;;;;5040545;28;20169;-96
2022/10/15 11:10:02;;;;;;;2.20;0.97;;;16.00;99.90;;;;;;5023573;28;20200;-96
2022/10/15 11:12:57;;;;;;;1.40;1.10;;;16.00;99.90;;;;;;5023557;28;20157;-96
2022/10/15 11:15:48;;;;;;;1.40;1.00;;;16.00;99.90;;;;;;5023664;28;20203;-96
2022/10/15 11:18:30;;;;;;;1.37;0.90;;;16.00;99.90;;;;;;5023597;28;20173;-96
2022/10/15 11:21:25;;;;;;;2.07;0.90;;;16.00;99.90;;;;;;5023137;28;20204;-96
2022/10/15 11:23:56;;;;;;;1.97;1.00;;;16.00;99.90;;;;;;5023525;28;20228;-96
2022/10/15 11:26:37;;;;;;;4.93;1.07;;;16.10;99.90;;;;;;5023304;28;20220;-96
2022/10/15 11:29:28;;;;;;;1.43;0.90;;;16.10;99.90;;;;;;5023352;28;20184;-96
2022/10/15 11:32:27;;;;;;;1.07;0.80;;;16.00;99.90;;;;;;5023234;28;20188;-96
2022/10/15 11:35:13;;;;;;;1.57;0.90;;;16.50;99.90;;;;;;5022940;28;20162;-96
2022/10/15 11:37:55;;;;;;;2.67;1.60;;;17.00;99.90;;;;;;5023233;28;20161;-94
2022/10/15 11:40:50;;;;;;;1.50;1.10;;;16.40;99.90;;;;;;5023042;28;20249;-96
2022/10/15 11:43:40;;;;;;;2.37;1.30;;;16.20;99.90;;;;;;5023126;28;20149;-96
2022/10/15 11:46:23;;;;;;;1.20;1.10;;;16.30;99.90;;;;;;5022887;28;20164;-96
2022/10/15 11:49:23;;;;;;;1.40;1.30;;;16.30;99.90;;;;;;5023014;28;20161;-96
2022/10/15 11:51:57;;;;;;;1.40;1.27;;;16.40;99.90;;;;;;5022955;28;20161;-96
2022/10/15 11:54:37;;;;;;;1.87;1.30;;;16.60;99.90;;;;;;5022780;28;20181;-94
2022/10/15 11:57:03;;;;;;;3.20;1.50;;;16.40;99.90;;;;;;5022756;28;20180;-96
2022/10/15 11:59:36;;;;;;;1.57;1.30;;;17.10;99.90;;;;;;5022758;28;20260;-96
2022/10/15 12:02:14;;;;;;;3.37;0.97;;;16.30;99.90;;;;;;5022732;28;20157;-96
2022/10/15 12:04:47;;;;;;;2.30;1.30;;;16.50;99.90;;;;;;5039484;28;20152;-96
2022/10/15 12:07:24;;;;;;;1.47;1.03;;;16.40;99.90;;;;;;5022675;28;20236;-95
2022/10/15 12:09:59;;;;;;;2.07;1.50;;;16.40;99.90;;;;;;5022508;28;20227;-96
2022/10/15 12:12:29;;;;;;;1.50;1.10;;;17.30;99.90;;;;;;5022577;28;20177;-96
2022/10/15 12:15:31;;;;;;;1.93;1.30;;;16.20;99.90;;;;;;5022532;28;20180;-96
2022/10/15 12:18:16;;;;;;;1.57;1.20;;;17.00;99.90;;;;;;5015440;28;20165;-96
2022/10/15 12:20:42;;;;;;;1.87;1.23;;;16.40;99.90;;;;;;5022333;28;20181;-96
2022/10/15 12:23:25;;;;;;;1.43;1.17;;;16.70;99.90;;;;;;5022288;28;20196;-96
2022/10/15 12:25:51;;;;;;;1.73;1.20;;;16.50;99.90;;;;;;5022248;28;20199;-96
2022/10/15 12:28:23;;;;;;;1.27;1.17;;;16.70;99.90;;;;;;5022302;28;20181;-96
2022/10/15 12:30:58;;;;;;;2.57;1.23;;;16.60;99.90;;;;;;5022116;28;20205;-96
2022/10/15 12:33:30;;;;;;;1.63;1.17;;;16.60;99.90;;;;;;5038589;28;20156;-95
2022/10/15 12:35:58;;;;;;;3.93;1.10;;;16.90;99.90;;;;;;5039126;28;20217;-96
2022/10/15 12:38:33;;;;;;;1.10;0.97;;;16.70;99.90;;;;;;5022247;28;20161;-96
2022/10/15 12:41:06;;;;;;;1.13;1.00;;;16.80;99.90;;;;;;5022139;28;20176;-96
2022/10/15 12:43:35;;;;;;;1.70;0.97;;;16.80;99.90;;;;;;5022099;28;20164;-96
2022/10/15 12:46:03;;;;;;;1.80;1.00;;;16.90;99.90;;;;;;5021900;28;20185;-96
2022/10/15 12:48:35;;;;;;;1.30;1.03;;;17.00;99.90;;;;;;5021997;28;20184;-96
2022/10/15 12:51:20;;;;;;;4.70;1.40;;;17.00;99.90;;;;;;5038718;28;20304;-94
2022/10/15 12:53:48;;;;;;;1.27;1.00;;;17.20;99.90;;;;;;5038821;28;20149;-96